Time;durP1;ratioP1;P1;durP2;ratioP2;P2;SDS_P1;SDS_P2;PMS_P1;PMS_P2;Temp;Humidity;BMP_temperature;BMP_pressure;BME280_temperature;BME280_humidity;BME280_pressure;Samples;Min_cycle;Max_cycle;Signal;HPM_P1;HPM_P2
2021/01/08 00:01:12;;;;;;;21.10;17.37;;;2.80;99.90;;;;;;5018407;28;20578;-87
2021/01/08 00:03:40;;;;;;;20.53;17.20;;;2.90;99.90;;;;;;5028699;28;20457;-89
2021/01/08 00:06:07;;;;;;;25.70;18.77;;;2.90;99.90;;;;;;5036047;28;20449;-86
2021/01/08 00:08:33;;;;;;;19.77;16.00;;;3.10;99.90;;;;;;5037895;28;20453;-87
2021/01/08 00:11:00;;;;;;;21.07;15.50;;;3.00;99.90;;;;;;5004574;28;20486;-87
2021/01/08 00:13:27;;;;;;;25.93;17.33;;;3.00;99.90;;;;;;5017889;28;20938;-87
2021/01/08 00:15:53;;;;;;;19.40;15.20;;;3.00;99.90;;;;;;5019771;28;20793;-87
2021/01/08 00:18:19;;;;;;;18.10;14.43;;;3.10;99.90;;;;;;5021911;28;20460;-87
2021/01/08 00:20:47;;;;;;;15.67;12.60;;;3.10;99.90;;;;;;5018447;28;20937;-88
2021/01/08 00:23:13;;;;;;;14.30;12.20;;;3.00;99.90;;;;;;5017680;28;20455;-87
2021/01/08 00:25:40;;;;;;;14.73;12.77;;;3.00;99.90;;;;;;5017708;28;20449;-87
2021/01/08 00:28:06;;;;;;;14.87;12.90;;;3.10;99.90;;;;;;5017438;28;20950;-87
2021/01/08 00:30:33;;;;;;;15.77;12.30;;;3.10;99.90;;;;;;5017684;28;20460;-87
2021/01/08 00:32:59;;;;;;;14.50;11.90;;;3.10;99.90;;;;;;5016582;28;20478;-87
2021/01/08 00:35:26;;;;;;;18.77;15.63;;;3.00;99.90;;;;;;5017932;28;20528;-87
2021/01/08 00:37:53;;;;;;;18.67;14.93;;;3.00;99.90;;;;;;5018064;28;20588;-87
2021/01/08 00:40:19;;;;;;;21.17;15.93;;;2.90;99.90;;;;;;5017602;28;20859;-87
2021/01/08 00:42:46;;;;;;;16.20;12.73;;;3.00;99.90;;;;;;5017581;28;20561;-87
2021/01/08 00:45:13;;;;;;;16.73;13.10;;;3.10;99.90;;;;;;5017683;28;20537;-87
2021/01/08 00:47:40;;;;;;;16.50;13.87;;;3.10;99.90;;;;;;5017507;28;20459;-87
2021/01/08 00:50:07;;;;;;;15.40;13.57;;;3.20;99.90;;;;;;5017796;28;20456;-87
2021/01/08 00:52:34;;;;;;;13.90;11.23;;;3.10;99.90;;;;;;5016936;28;20498;-86
2021/01/08 00:55:01;;;;;;;16.47;14.67;;;3.20;99.90;;;;;;5016602;28;20579;-86
2021/01/08 00:57:27;;;;;;;13.80;11.67;;;3.20;99.90;;;;;;5017639;28;20591;-86
2021/01/08 00:59:54;;;;;;;15.90;13.83;;;3.20;99.90;;;;;;5016900;28;20566;-86
2021/01/08 01:02:20;;;;;;;17.37;13.43;;;3.20;99.90;;;;;;5016708;28;20486;-86
2021/01/08 01:04:46;;;;;;;15.87;12.97;;;3.30;99.90;;;;;;5016401;28;20460;-91
2021/01/08 01:07:13;;;;;;;13.93;11.43;;;3.20;99.90;;;;;;5015509;28;20545;-86
2021/01/08 01:09:39;;;;;;;14.63;12.13;;;3.20;99.90;;;;;;5017035;28;20555;-86
2021/01/08 01:12:07;;;;;;;13.50;11.53;;;3.20;99.90;;;;;;5016560;28;20599;-86
2021/01/08 01:14:33;;;;;;;16.20;11.90;;;3.30;99.90;;;;;;5016676;28;20919;-86
2021/01/08 01:17:03;;;;;;;14.37;11.97;;;3.30;99.90;;;;;;5015910;28;20459;-86
2021/01/08 01:19:30;;;;;;;13.97;11.43;;;3.30;99.90;;;;;;5016528;28;20585;-86
2021/01/08 01:21:57;;;;;;;16.37;11.53;;;3.30;99.90;;;;;;5016158;28;20476;-86
2021/01/08 01:24:23;;;;;;;15.30;12.30;;;3.30;99.90;;;;;;5016585;28;20503;-86
2021/01/08 01:26:54;;;;;;;15.67;11.73;;;3.30;99.90;;;;;;5016045;28;20449;-88
2021/01/08 01:29:22;;;;;;;13.73;11.53;;;3.30;99.90;;;;;;5016658;28;20899;-86
2021/01/08 01:31:49;;;;;;;14.30;11.23;;;3.30;99.90;;;;;;5016618;28;20456;-91
2021/01/08 01:34:15;;;;;;;13.10;11.60;;;3.30;99.90;;;;;;5017244;28;20512;-86
2021/01/08 01:36:41;;;;;;;19.83;13.63;;;3.20;99.90;;;;;;5016587;28;20540;-86
2021/01/08 01:39:08;;;;;;;14.73;11.50;;;3.20;99.90;;;;;;5016770;28;20462;-86
2021/01/08 01:41:34;;;;;;;15.30;12.30;;;3.20;99.90;;;;;;5017627;28;20481;-86
2021/01/08 01:44:00;;;;;;;12.70;10.03;;;3.20;99.90;;;;;;5016717;28;20941;-86
2021/01/08 01:46:28;;;;;;;16.23;11.87;;;3.20;99.90;;;;;;5019964;28;20534;-86
2021/01/08 01:48:54;;;;;;;13.40;11.27;;;3.20;99.90;;;;;;5018294;28;20475;-86
2021/01/08 01:51:22;;;;;;;14.80;12.50;;;3.20;99.90;;;;;;5017972;28;20537;-86
2021/01/08 01:53:49;;;;;;;14.40;11.80;;;3.30;99.90;;;;;;5017701;28;20531;-88
2021/01/08 01:56:15;;;;;;;14.57;11.77;;;3.30;99.90;;;;;;5017518;28;20481;-86
2021/01/08 01:58:42;;;;;;;13.10;10.70;;;3.30;99.90;;;;;;5016322;28;20449;-86
2021/01/08 02:01:10;;;;;;;12.37;10.77;;;3.30;99.90;;;;;;5016490;28;20480;-86
2021/01/08 02:03:41;;;;;;;18.63;10.80;;;3.30;99.90;;;;;;5016519;28;20461;-87
2021/01/08 02:06:13;;;;;;;15.17;12.40;;;3.30;99.90;;;;;;5016899;28;20478;-86
2021/01/08 02:08:43;;;;;;;12.30;10.33;;;3.20;99.90;;;;;;5016815;28;20566;-86
2021/01/08 02:11:11;;;;;;;14.57;10.23;;;3.20;99.90;;;;;;5016320;28;20533;-86
2021/01/08 02:13:42;;;;;;;13.43;10.27;;;3.20;99.90;;;;;;5016346;28;21002;-85
2021/01/08 02:16:11;;;;;;;16.50;10.97;;;3.30;99.90;;;;;;5015761;28;20450;-86
2021/01/08 02:18:40;;;;;;;13.50;9.80;;;3.30;99.90;;;;;;5015326;28;20465;-86
2021/01/08 02:21:11;;;;;;;14.73;9.80;;;3.30;99.90;;;;;;5016052;28;20500;-86
2021/01/08 02:23:43;;;;;;;12.00;9.70;;;3.30;99.90;;;;;;5016146;28;20528;-86
2021/01/08 02:26:11;;;;;;;14.50;11.10;;;3.20;99.90;;;;;;5015888;28;20529;-86
2021/01/08 02:28:38;;;;;;;13.27;11.40;;;3.30;99.90;;;;;;5017060;28;20445;-86
2021/01/08 02:31:04;;;;;;;12.63;10.10;;;3.20;99.90;;;;;;5015915;28;20466;-85
2021/01/08 02:33:31;;;;;;;11.57;10.27;;;3.30;99.90;;;;;;5016808;28;20489;-85
2021/01/08 02:36:01;;;;;;;11.00;9.43;;;3.30;99.90;;;;;;5016290;28;20444;-86
2021/01/08 02:38:28;;;;;;;15.03;11.60;;;3.30;99.90;;;;;;5018749;28;20466;-86
2021/01/08 02:40:55;;;;;;;16.00;10.70;;;3.30;99.90;;;;;;5025759;28;20478;-88
2021/01/08 02:43:24;;;;;;;14.90;11.57;;;3.40;99.90;;;;;;5020945;28;20535;-85
2021/01/08 02:45:51;;;;;;;13.97;11.30;;;3.40;99.90;;;;;;5019580;28;20453;-91
2021/01/08 02:48:20;;;;;;;14.13;10.87;;;3.40;99.90;;;;;;5026071;28;20516;-85
2021/01/08 02:50:46;;;;;;;17.70;11.27;;;3.30;99.90;;;;;;5021425;28;20462;-86
2021/01/08 02:53:15;;;;;;;17.23;10.93;;;3.30;99.90;;;;;;5036670;28;20466;-85
2021/01/08 02:55:49;;;;;;;14.13;12.30;;;3.30;99.90;;;;;;5017442;28;20494;-86
2021/01/08 02:58:17;;;;;;;14.97;12.20;;;3.30;99.90;;;;;;5015179;28;20439;-86
2021/01/08 03:00:45;;;;;;;15.30;11.30;;;3.40;99.90;;;;;;5015347;28;20637;-86
2021/01/08 03:03:11;;;;;;;12.20;10.60;;;3.40;99.90;;;;;;5014706;28;20994;-86
2021/01/08 03:05:38;;;;;;;20.43;14.30;;;3.40;99.90;;;;;;5015546;28;20536;-86
2021/01/08 03:08:05;;;;;;;18.30;12.70;;;3.30;99.90;;;;;;5014868;28;20458;-85
2021/01/08 03:10:31;;;;;;;17.20;12.70;;;3.20;99.90;;;;;;5014719;28;20442;-86
2021/01/08 03:13:01;;;;;;;15.20;11.87;;;3.20;99.90;;;;;;5014727;28;20544;-86
2021/01/08 03:15:27;;;;;;;15.93;12.33;;;3.30;99.90;;;;;;5015026;28;20845;-86
2021/01/08 03:17:55;;;;;;;16.97;13.03;;;3.20;99.90;;;;;;5014797;28;20450;-86
2021/01/08 03:20:21;;;;;;;18.50;13.60;;;3.30;99.90;;;;;;5015314;28;20513;-85
2021/01/08 03:22:48;;;;;;;20.73;14.30;;;3.20;99.90;;;;;;5014542;28;20572;-86
2021/01/08 03:25:14;;;;;;;21.33;14.20;;;3.00;99.90;;;;;;5014168;28;20457;-86
2021/01/08 03:27:41;;;;;;;19.83;14.77;;;3.10;99.90;;;;;;5014673;28;20535;-86
2021/01/08 03:30:08;;;;;;;22.27;16.10;;;3.10;99.90;;;;;;5014076;28;20458;-85
2021/01/08 03:32:35;;;;;;;21.07;15.50;;;3.10;99.90;;;;;;5014830;28;20454;-86
2021/01/08 03:35:06;;;;;;;16.50;13.77;;;3.10;99.90;;;;;;5014887;28;20424;-86
2021/01/08 03:37:32;;;;;;;18.97;14.70;;;3.20;99.90;;;;;;5014952;28;20441;-86
2021/01/08 03:39:58;;;;;;;22.30;15.47;;;3.20;99.90;;;;;;5014608;28;20571;-85
2021/01/08 03:42:25;;;;;;;24.43;14.30;;;3.20;99.90;;;;;;5014820;28;20481;-86
2021/01/08 03:44:51;;;;;;;17.07;12.87;;;3.20;99.90;;;;;;5014653;28;20900;-88
2021/01/08 03:47:18;;;;;;;16.17;13.13;;;3.30;99.90;;;;;;5014869;28;20484;-86
2021/01/08 03:49:44;;;;;;;16.23;12.43;;;3.30;99.90;;;;;;5014963;28;20532;-86
2021/01/08 03:52:11;;;;;;;16.10;12.47;;;3.30;99.90;;;;;;5014632;28;20454;-86
2021/01/08 03:54:38;;;;;;;18.27;14.00;;;3.30;99.90;;;;;;5014695;28;20968;-86
2021/01/08 03:57:04;;;;;;;15.40;12.70;;;3.30;99.90;;;;;;5014940;28;20482;-86
2021/01/08 03:59:31;;;;;;;16.30;12.77;;;3.40;99.90;;;;;;5014305;28;20943;-85
2021/01/08 04:01:57;;;;;;;18.30;13.73;;;3.50;99.90;;;;;;5014845;28;20581;-85
2021/01/08 04:04:24;;;;;;;14.93;11.97;;;3.40;99.90;;;;;;5014699;28;20482;-86
2021/01/08 04:06:52;;;;;;;14.87;11.73;;;3.40;99.90;;;;;;5014341;28;20472;-86
2021/01/08 04:09:22;;;;;;;16.60;12.70;;;3.40;99.90;;;;;;5014587;28;20977;-86
2021/01/08 04:11:50;;;;;;;19.63;14.40;;;3.50;99.90;;;;;;5014823;28;20533;-86
2021/01/08 04:14:17;;;;;;;16.63;12.17;;;3.40;99.90;;;;;;5014323;28;20453;-86
2021/01/08 04:16:52;;;;;;;17.00;11.23;;;3.30;99.90;;;;;;5014769;28;20445;-85
2021/01/08 04:19:19;;;;;;;14.90;10.67;;;3.30;99.90;;;;;;5014259;28;20536;-86
2021/01/08 04:21:46;;;;;;;14.50;10.87;;;3.40;99.90;;;;;;5015219;28;20477;-86
2021/01/08 04:24:13;;;;;;;16.47;10.87;;;3.40;99.90;;;;;;5014832;28;20454;-85
2021/01/08 04:26:43;;;;;;;13.37;9.90;;;3.40;99.90;;;;;;5014780;28;20488;-86
2021/01/08 04:29:12;;;;;;;16.87;11.33;;;3.50;99.90;;;;;;5014579;28;20806;-85
2021/01/08 04:31:41;;;;;;;12.00;10.73;;;3.50;99.90;;;;;;5014946;28;20545;-86
2021/01/08 04:34:10;;;;;;;20.33;12.00;;;3.50;99.90;;;;;;5014619;28;20517;-86
2021/01/08 04:36:36;;;;;;;14.40;10.20;;;3.40;99.90;;;;;;5014351;28;21001;-85
2021/01/08 04:39:03;;;;;;;17.83;10.40;;;3.50;99.90;;;;;;5019504;28;20555;-85
2021/01/08 04:41:34;;;;;;;12.80;8.90;;;3.40;99.90;;;;;;4998724;28;20860;-85
2021/01/08 04:44:05;;;;;;;14.90;10.07;;;3.40;99.90;;;;;;5017909;28;20533;-86
2021/01/08 04:46:37;;;;;;;13.67;9.80;;;3.40;99.90;;;;;;5017836;28;20445;-85
2021/01/08 04:49:07;;;;;;;15.90;11.27;;;3.40;99.90;;;;;;5017895;28;20458;-85
2021/01/08 04:51:49;;;;;;;15.87;11.00;;;3.40;99.90;;;;;;5017804;28;20916;-85
2021/01/08 04:54:15;;;;;;;10.63;7.57;;;3.40;99.90;;;;;;5017653;28;20521;-85
2021/01/08 04:56:56;;;;;;;11.30;8.50;;;3.40;99.90;;;;;;5017419;28;20545;-85
2021/01/08 04:59:29;;;;;;;11.53;7.50;;;3.40;99.90;;;;;;5018150;28;20443;-85
2021/01/08 05:01:55;;;;;;;10.17;8.00;;;3.40;99.90;;;;;;5017597;28;20468;-85
2021/01/08 05:04:22;;;;;;;10.43;7.40;;;3.30;99.90;;;;;;5017476;28;20445;-85
2021/01/08 05:06:51;;;;;;;12.20;9.20;;;3.30;99.90;;;;;;5017389;28;20540;-85
2021/01/08 05:09:19;;;;;;;13.33;9.37;;;3.30;99.90;;;;;;5017485;28;20530;-85
2021/01/08 05:11:46;;;;;;;12.47;9.70;;;3.30;99.90;;;;;;5017204;28;20962;-85
2021/01/08 05:14:15;;;;;;;11.37;8.43;;;3.30;99.90;;;;;;5016803;28;20477;-86
2021/01/08 05:16:43;;;;;;;13.03;8.40;;;3.40;99.90;;;;;;5017345;28;20520;-85
2021/01/08 05:19:15;;;;;;;11.20;7.37;;;3.40;99.90;;;;;;5016918;28;20541;-85
2021/01/08 05:21:51;;;;;;;11.37;7.97;;;3.30;99.90;;;;;;5017807;28;20564;-86
2021/01/08 05:24:25;;;;;;;11.30;7.60;;;3.30;99.90;;;;;;5017040;28;20454;-86
2021/01/08 05:27:06;;;;;;;9.60;6.93;;;3.30;99.90;;;;;;5016720;28;20462;-87
2021/01/08 05:29:39;;;;;;;8.13;6.10;;;3.20;99.90;;;;;;5016526;28;20496;-85
2021/01/08 05:32:11;;;;;;;9.00;7.00;;;3.20;99.90;;;;;;5016749;28;20444;-86
2021/01/08 05:34:38;;;;;;;8.57;6.10;;;3.30;99.90;;;;;;5016969;28;20490;-85
2021/01/08 05:37:14;;;;;;;8.17;6.27;;;3.20;99.90;;;;;;5016911;28;20553;-85
2021/01/08 05:39:50;;;;;;;9.50;5.90;;;3.20;99.90;;;;;;5021419;28;20456;-85
2021/01/08 05:42:21;;;;;;;8.17;5.47;;;3.20;99.90;;;;;;5021555;28;20471;-85
2021/01/08 05:44:51;;;;;;;10.00;6.50;;;3.20;99.90;;;;;;5017246;28;20474;-85
2021/01/08 05:47:26;;;;;;;11.03;5.90;;;3.20;99.90;;;;;;5016628;28;20433;-85
2021/01/08 05:50:00;;;;;;;7.83;6.33;;;3.20;99.90;;;;;;5016897;28;20442;-86
2021/01/08 05:52:45;;;;;;;7.87;6.10;;;3.20;99.90;;;;;;5016833;28;20522;-85
2021/01/08 05:55:24;;;;;;;12.73;6.97;;;3.20;99.90;;;;;;5016408;28;20461;-85
2021/01/08 05:57:50;;;;;;;11.20;6.50;;;3.20;99.90;;;;;;5016737;28;20449;-85
2021/01/08 06:00:20;;;;;;;10.10;6.30;;;3.20;99.90;;;;;;5016777;28;20751;-85
2021/01/08 06:02:56;;;;;;;10.97;6.67;;;3.20;99.90;;;;;;5016854;28;20479;-85
2021/01/08 06:05:31;;;;;;;7.90;5.73;;;3.20;99.90;;;;;;5017032;28;20495;-85
2021/01/08 06:08:03;;;;;;;11.77;7.83;;;3.30;99.90;;;;;;5016208;28;20441;-86
2021/01/08 06:10:38;;;;;;;8.33;7.30;;;3.20;99.90;;;;;;5016115;28;20484;-86
2021/01/08 06:13:10;;;;;;;10.53;7.37;;;3.20;99.90;;;;;;5016293;28;20625;-85
2021/01/08 06:15:55;;;;;;;;;;;;;;;;;;;;;
2021/01/08 06:18:30;;;;;;;8.47;6.67;;;3.20;99.90;;;;;;5013884;28;20926;-85
2021/01/08 06:21:10;;;;;;;10.30;6.90;;;3.30;99.90;;;;;;5017286;28;20997;-86
2021/01/08 06:23:40;;;;;;;9.77;5.80;;;3.30;99.90;;;;;;5015773;28;21025;-85
2021/01/08 06:28:42;;;;;;;8.03;6.27;;;3.20;99.90;;;;;;5015986;28;20593;-85
2021/01/08 06:31:31;;;;;;;8.47;6.87;;;3.20;99.90;;;;;;5015710;28;20301;-85
2021/01/08 06:34:17;;;;;;;12.93;6.83;;;3.20;99.90;;;;;;5015924;28;20499;-86
2021/01/08 06:36:46;;;;;;;11.93;7.60;;;3.10;99.90;;;;;;5016386;28;20440;-85
2021/01/08 06:39:37;;;;;;;10.17;7.50;;;3.10;99.90;;;;;;5016116;28;20451;-85
2021/01/08 06:42:04;;;;;;;10.73;7.33;;;3.00;99.90;;;;;;5016074;28;20484;-85
2021/01/08 06:44:33;;;;;;;12.33;7.33;;;2.90;99.90;;;;;;5016381;28;20533;-85
2021/01/08 06:47:01;;;;;;;11.80;8.07;;;3.00;99.90;;;;;;5016239;28;20504;-85
2021/01/08 06:49:31;;;;;;;14.13;7.17;;;2.90;99.90;;;;;;5015265;28;20537;-84
2021/01/08 06:52:00;;;;;;;12.50;7.33;;;3.00;99.90;;;;;;5014607;28;20461;-84
2021/01/08 06:54:31;;;;;;;10.33;6.73;;;3.00;99.90;;;;;;5013541;28;20926;-84
2021/01/08 06:57:03;;;;;;;11.77;7.45;;;3.00;99.90;;;;;;5013813;28;20472;-84
2021/01/08 06:59:32;;;;;;;12.00;8.67;;;2.90;99.90;;;;;;5015518;28;20238;-84
2021/01/08 07:02:05;;;;;;;11.00;7.73;;;2.90;99.90;;;;;;5014162;28;20492;-84
2021/01/08 07:04:38;;;;;;;10.03;6.63;;;2.90;99.90;;;;;;5013744;28;20445;-84
2021/01/08 07:07:20;;;;;;;12.33;7.87;;;2.90;99.90;;;;;;5013934;28;20541;-84
2021/01/08 07:09:54;;;;;;;10.97;7.47;;;3.00;99.90;;;;;;5014062;28;20503;-84
2021/01/08 07:12:23;;;;;;;8.40;6.17;;;2.90;99.90;;;;;;5015186;28;20441;-83
2021/01/08 07:15:04;;;;;;;10.00;6.87;;;2.90;99.90;;;;;;5014209;28;20544;-88
2021/01/08 07:17:33;;;;;;;12.47;6.90;;;3.00;99.90;;;;;;5014344;28;20449;-84
2021/01/08 07:20:11;;;;;;;11.60;6.63;;;3.10;99.90;;;;;;5013959;28;20804;-84
2021/01/08 07:22:38;;;;;;;10.37;7.27;;;3.10;99.90;;;;;;5014367;28;20479;-83
2021/01/08 07:25:13;;;;;;;8.13;5.80;;;3.10;99.90;;;;;;5013328;28;20457;-83
2021/01/08 07:27:49;;;;;;;9.00;6.40;;;3.10;99.90;;;;;;5014158;28;20564;-83
2021/01/08 07:30:27;;;;;;;9.50;6.47;;;3.10;99.90;;;;;;5013916;28;20446;-83
2021/01/08 07:32:54;;;;;;;8.43;6.13;;;3.10;99.90;;;;;;5013802;28;20443;-83
2021/01/08 07:35:29;;;;;;;8.10;5.77;;;3.10;99.90;;;;;;5014732;28;20446;-83
2021/01/08 07:38:14;;;;;;;7.67;5.17;;;3.10;99.90;;;;;;5013870;28;20465;-84
2021/01/08 07:40:58;;;;;;;12.07;7.03;;;3.20;99.90;;;;;;5013329;28;20833;-83
2021/01/08 07:43:34;;;;;;;7.27;6.23;;;3.00;99.90;;;;;;5014139;28;20519;-84
2021/01/08 07:46:06;;;;;;;7.17;5.90;;;3.10;99.90;;;;;;5013426;28;20731;-84
2021/01/08 07:48:38;;;;;;;6.87;5.13;;;3.10;99.90;;;;;;5014200;28;20862;-84
2021/01/08 07:51:10;;;;;;;8.20;5.97;;;3.20;99.90;;;;;;5013541;28;20542;-83
2021/01/08 07:53:53;;;;;;;6.67;5.47;;;3.20;99.90;;;;;;5013282;28;20537;-83
2021/01/08 07:56:21;;;;;;;12.00;7.90;;;3.20;99.90;;;;;;5011803;28;20560;-85
2021/01/08 07:58:58;;;;;;;9.50;6.73;;;3.20;99.90;;;;;;5014021;28;20472;-83
2021/01/08 08:01:24;;;;;;;6.87;5.43;;;3.20;99.90;;;;;;5014901;28;20434;-83
2021/01/08 08:04:00;;;;;;;13.53;6.37;;;3.20;99.90;;;;;;5013244;28;20933;-87
2021/01/08 08:06:32;;;;;;;8.20;6.37;;;3.20;99.90;;;;;;5014255;28;20431;-83
2021/01/08 08:09:01;;;;;;;9.20;6.13;;;3.20;99.90;;;;;;5013332;28;20532;-84
2021/01/08 08:11:32;;;;;;;9.43;7.10;;;3.20;99.90;;;;;;5013969;28;20466;-83
2021/01/08 08:13:59;;;;;;;8.50;7.27;;;3.20;99.90;;;;;;5012984;28;20470;-84
2021/01/08 08:16:33;;;;;;;9.07;6.40;;;3.30;99.90;;;;;;5015413;28;20450;-84
2021/01/08 08:19:03;;;;;;;12.43;6.50;;;3.30;99.90;;;;;;5017034;28;20846;-84
2021/01/08 08:21:37;;;;;;;9.33;6.50;;;3.30;99.90;;;;;;5017353;28;20462;-83
2021/01/08 08:24:09;;;;;;;11.80;8.83;;;3.30;99.90;;;;;;5016826;28;20450;-83
2021/01/08 08:26:38;;;;;;;12.43;7.97;;;3.30;99.90;;;;;;5017273;28;20495;-83
2021/01/08 08:29:07;;;;;;;9.30;7.80;;;3.30;99.90;;;;;;5016466;28;20484;-84
2021/01/08 08:31:40;;;;;;;11.93;8.93;;;3.40;99.90;;;;;;5012142;28;20542;-84
2021/01/08 08:34:13;;;;;;;12.30;8.10;;;3.30;99.90;;;;;;5002255;28;20543;-84
2021/01/08 08:36:42;;;;;;;16.67;10.20;;;3.40;99.90;;;;;;5005960;28;20473;-87
2021/01/08 08:39:19;;;;;;;9.43;7.60;;;3.40;99.90;;;;;;5010859;28;20452;-89
2021/01/08 08:41:48;;;;;;;11.03;7.70;;;3.40;99.90;;;;;;5005366;28;20487;-86
2021/01/08 08:44:16;;;;;;;10.40;7.57;;;3.50;99.90;;;;;;5002352;28;20880;-84
2021/01/08 08:46:48;;;;;;;9.03;6.13;;;3.50;99.90;;;;;;5014337;28;20845;-84
2021/01/08 08:49:15;;;;;;;7.53;5.87;;;3.40;99.90;;;;;;5016591;28;20779;-85
2021/01/08 08:51:47;;;;;;;6.77;5.60;;;3.60;99.90;;;;;;5016887;28;20496;-84
2021/01/08 08:54:14;;;;;;;5.90;5.10;;;3.60;99.90;;;;;;5016573;28;20929;-85
2021/01/08 08:56:48;;;;;;;7.07;5.03;;;3.60;99.90;;;;;;5017122;28;20480;-84
2021/01/08 08:59:35;;;;;;;6.87;5.07;;;3.60;99.90;;;;;;5017159;28;20444;-83
2021/01/08 09:02:04;;;;;;;6.63;5.17;;;3.50;99.90;;;;;;5011023;28;20549;-84
2021/01/08 09:04:39;;;;;;;6.07;4.70;;;3.60;99.90;;;;;;5017578;28;20521;-83
2021/01/08 09:07:16;;;;;;;7.73;5.80;;;3.70;99.90;;;;;;5013595;28;20446;-85
2021/01/08 09:09:51;;;;;;;6.47;4.87;;;3.70;99.90;;;;;;5015830;28;20503;-85
2021/01/08 09:12:39;;;;;;;8.60;5.10;;;3.70;99.90;;;;;;5016137;28;20483;-85
2021/01/08 09:15:16;;;;;;;9.50;4.97;;;3.80;99.90;;;;;;5015017;28;20922;-84
2021/01/08 09:17:46;;;;;;;8.60;5.47;;;3.80;99.90;;;;;;5016575;28;20760;-84
2021/01/08 09:20:21;;;;;;;8.30;5.27;;;3.90;99.90;;;;;;5015984;28;20921;-84
2021/01/08 09:22:58;;;;;;;6.47;5.27;;;3.90;99.90;;;;;;5016282;28;20655;-84
2021/01/08 09:25:24;;;;;;;7.70;5.40;;;3.80;99.90;;;;;;5016449;28;20442;-84
2021/01/08 09:27:58;;;;;;;7.00;5.40;;;3.90;99.90;;;;;;5016432;28;20511;-88
2021/01/08 09:30:29;;;;;;;7.13;4.90;;;3.70;99.90;;;;;;5016606;28;20465;-83
2021/01/08 09:33:16;;;;;;;7.17;4.83;;;3.70;99.90;;;;;;5014106;28;20456;-81
2021/01/08 09:35:49;;;;;;;6.33;4.60;;;3.70;99.90;;;;;;5012093;28;20454;-83
2021/01/08 09:38:48;;;;;;;7.13;5.40;;;3.80;99.90;;;;;;5014987;28;20463;-82
2021/01/08 09:41:21;;;;;;;8.07;6.10;;;3.50;99.90;;;;;;5012280;28;20445;-82
2021/01/08 09:43:59;;;;;;;5.40;4.63;;;3.50;99.90;;;;;;5015127;28;20462;-83
2021/01/08 09:46:38;;;;;;;9.10;6.50;;;3.50;99.90;;;;;;5015867;28;20888;-83
2021/01/08 09:49:10;;;;;;;6.37;4.93;;;3.40;99.90;;;;;;5016021;28;20454;-83
2021/01/08 09:51:40;;;;;;;6.00;4.73;;;3.60;99.90;;;;;;5015265;28;20936;-83
2021/01/08 09:54:13;;;;;;;7.23;5.27;;;3.60;99.90;;;;;;5014710;28;20464;-83
2021/01/08 09:56:42;;;;;;;7.30;4.90;;;3.70;99.90;;;;;;5011774;28;20482;-83
2021/01/08 09:59:16;;;;;;;7.90;5.53;;;3.70;99.90;;;;;;5015303;28;20554;-84
2021/01/08 10:01:55;;;;;;;7.37;5.63;;;3.70;99.90;;;;;;5015405;28;20514;-83
2021/01/08 10:04:30;;;;;;;7.20;5.07;;;3.70;99.90;;;;;;5015774;28;20458;-83
2021/01/08 10:07:10;;;;;;;6.53;5.50;;;3.90;99.90;;;;;;5014528;28;20559;-84
2021/01/08 10:09:55;;;;;;;8.33;5.77;;;3.90;99.90;;;;;;5014871;28;20535;-83
2021/01/08 10:12:29;;;;;;;5.90;5.30;;;3.90;99.90;;;;;;5014331;28;20456;-84
2021/01/08 10:15:05;;;;;;;8.33;5.40;;;4.00;99.90;;;;;;5007503;28;20443;-83
2021/01/08 10:17:55;;;;;;;8.30;5.03;;;4.10;99.90;;;;;;5014892;28;20531;-82
2021/01/08 10:20:24;;;;;;;7.77;5.47;;;4.20;99.90;;;;;;5008675;28;20473;-82
2021/01/08 10:23:06;;;;;;;7.43;6.40;;;4.20;99.90;;;;;;5014680;28;20491;-90
2021/01/08 10:25:43;;;;;;;5.97;4.87;;;4.20;99.90;;;;;;5015149;28;20450;-82
2021/01/08 10:28:20;;;;;;;7.10;5.23;;;4.30;99.90;;;;;;5014008;28;20481;-83
2021/01/08 10:30:50;;;;;;;8.47;5.63;;;4.30;99.90;;;;;;5014903;28;20549;-82
2021/01/08 10:33:32;;;;;;;5.50;4.00;;;4.30;99.90;;;;;;5014624;28;20442;-82
2021/01/08 10:36:01;;;;;;;8.90;5.33;;;4.30;99.90;;;;;;5013114;28;20457;-82
2021/01/08 10:38:42;;;;;;;5.03;3.97;;;4.40;99.90;;;;;;5013571;28;20548;-81
2021/01/08 10:41:10;;;;;;;6.43;4.73;;;4.40;99.90;;;;;;5014146;28;20899;-82
2021/01/08 10:43:40;;;;;;;6.03;4.27;;;4.40;99.90;;;;;;5014439;28;20490;-82
2021/01/08 10:46:13;;;;;;;6.93;4.10;;;4.40;99.90;;;;;;5014463;28;20447;-83
2021/01/08 10:48:50;;;;;;;8.43;6.10;;;4.40;99.90;;;;;;5013954;28;20534;-84
2021/01/08 10:51:42;;;;;;;6.90;4.90;;;4.30;99.90;;;;;;5013793;28;20970;-84
2021/01/08 10:57:14;;;;;;;6.07;4.80;;;4.30;99.90;;;;;;5012368;28;20459;-83
2021/01/08 10:59:51;;;;;;;6.63;4.60;;;4.20;99.90;;;;;;5013866;28;20446;-83
2021/01/08 11:02:22;;;;;;;8.47;6.00;;;4.10;99.90;;;;;;5013988;28;20565;-83
2021/01/08 11:04:51;;;;;;;7.40;6.00;;;4.10;99.90;;;;;;5013397;28;20577;-88
2021/01/08 11:07:17;;;;;;;8.10;5.77;;;4.20;99.90;;;;;;5010046;28;20507;-83
2021/01/08 11:09:47;;;;;;;9.00;5.63;;;4.20;99.90;;;;;;5013435;28;20457;-83
2021/01/08 11:12:30;;;;;;;5.93;4.50;;;4.10;99.90;;;;;;5013435;28;20463;-83
2021/01/08 11:15:00;;;;;;;6.97;5.33;;;4.30;99.90;;;;;;5012790;28;20495;-83
2021/01/08 11:17:27;;;;;;;5.97;5.03;;;4.30;99.90;;;;;;5013314;28;20927;-83
2021/01/08 11:19:54;;;;;;;7.37;5.00;;;4.20;99.90;;;;;;5015108;28;20486;-84
2021/01/08 11:22:45;;;;;;;5.97;4.67;;;4.30;99.90;;;;;;5015043;28;20485;-83
2021/01/08 11:25:13;;;;;;;8.30;5.33;;;4.40;99.90;;;;;;5012974;28;21072;-84
2021/01/08 11:27:49;;;;;;;5.83;4.60;;;4.30;99.90;;;;;;5012907;28;20578;-83
2021/01/08 11:30:19;;;;;;;7.70;5.60;;;4.20;99.90;;;;;;5013346;28;20446;-83
2021/01/08 11:32:49;;;;;;;7.40;4.80;;;4.30;99.90;;;;;;5014259;28;20507;-83
2021/01/08 11:35:24;;;;;;;7.23;4.90;;;4.40;99.90;;;;;;5012815;28;20954;-83
2021/01/08 11:38:01;;;;;;;5.93;4.53;;;4.40;99.90;;;;;;5012487;28;20488;-87
2021/01/08 11:40:27;;;;;;;6.47;5.50;;;4.40;99.90;;;;;;5014741;28;20445;-83
2021/01/08 11:42:57;;;;;;;7.17;5.20;;;4.40;99.90;;;;;;5014932;28;20551;-83
2021/01/08 11:45:24;;;;;;;6.07;4.73;;;4.50;99.90;;;;;;5007001;28;20495;-82
2021/01/08 11:47:53;;;;;;;6.10;4.87;;;4.50;99.90;;;;;;5012999;28;20470;-85
2021/01/08 11:50:21;;;;;;;7.10;4.67;;;4.60;99.90;;;;;;5016107;28;20548;-83
2021/01/08 11:52:57;;;;;;;7.10;6.00;;;4.70;99.90;;;;;;5019391;28;20815;-84
2021/01/08 11:55:24;;;;;;;6.40;5.20;;;4.70;99.90;;;;;;5021126;28;20444;-82
2021/01/08 11:57:52;;;;;;;7.00;5.50;;;4.70;99.90;;;;;;5018569;28;20984;-88
2021/01/08 12:00:21;;;;;;;7.23;4.93;;;4.60;99.90;;;;;;5019554;28;20941;-83
2021/01/08 12:03:16;;;;;;;8.50;5.73;;;4.60;99.90;;;;;;5017361;28;21056;-87
2021/01/08 12:05:48;;;;;;;8.43;5.83;;;4.70;99.90;;;;;;5010857;28;20449;-83
2021/01/08 12:08:16;;;;;;;7.13;5.37;;;4.70;99.90;;;;;;5017366;28;20483;-84
2021/01/08 12:10:42;;;;;;;5.70;4.10;;;4.70;99.90;;;;;;5017502;28;20580;-83
2021/01/08 12:13:36;;;;;;;8.17;4.77;;;4.60;99.90;;;;;;5019935;28;20511;-83
2021/01/08 12:16:06;;;;;;;5.30;3.90;;;4.70;99.90;;;;;;5016425;28;20443;-83
2021/01/08 12:18:35;;;;;;;6.60;4.70;;;4.70;99.90;;;;;;5018305;28;20508;-83
2021/01/08 12:21:05;;;;;;;5.57;4.27;;;4.60;99.90;;;;;;5017382;28;20953;-85
2021/01/08 12:23:34;;;;;;;7.30;4.57;;;4.70;99.90;;;;;;5017889;28;20492;-84
2021/01/08 12:26:03;;;;;;;4.53;4.00;;;4.60;99.90;;;;;;5018228;28;20550;-84
2021/01/08 12:28:30;;;;;;;5.00;3.83;;;4.70;99.90;;;;;;5017768;28;20513;-83
2021/01/08 12:31:01;;;;;;;5.20;4.00;;;4.60;99.90;;;;;;5019074;28;20453;-85
2021/01/08 12:33:32;;;;;;;7.40;4.40;;;4.70;99.90;;;;;;5018006;28;20455;-83
2021/01/08 12:36:02;;;;;;;5.33;4.20;;;4.80;99.90;;;;;;5017677;28;20448;-84
2021/01/08 12:38:29;;;;;;;7.20;4.33;;;4.90;99.90;;;;;;5018164;28;20439;-84
2021/01/08 12:40:55;;;;;;;5.90;4.90;;;4.70;99.90;;;;;;5016549;28;20794;-85
2021/01/08 12:43:23;;;;;;;5.43;3.93;;;4.70;99.90;;;;;;5016695;28;20574;-86
2021/01/08 12:45:49;;;;;;;5.00;3.80;;;4.80;99.90;;;;;;5017925;28;20508;-84
2021/01/08 12:48:16;;;;;;;5.50;4.03;;;4.90;99.90;;;;;;5016202;28;20527;-86
2021/01/08 12:50:44;;;;;;;5.90;4.50;;;4.90;99.90;;;;;;5015039;28;20533;-85
2021/01/08 12:53:10;;;;;;;5.60;4.20;;;4.90;99.90;;;;;;5013878;28;20558;-84
2021/01/08 12:55:37;;;;;;;4.63;3.57;;;4.90;99.90;;;;;;5016414;28;20494;-84
2021/01/08 12:58:03;;;;;;;5.90;4.33;;;4.90;99.90;;;;;;5015195;28;20468;-84
2021/01/08 13:00:30;;;;;;;5.20;4.10;;;5.00;99.90;;;;;;5016046;28;20445;-85
2021/01/08 13:02:58;;;;;;;6.20;3.60;;;4.90;99.90;;;;;;5014573;28;20491;-84
2021/01/08 13:05:25;;;;;;;5.30;3.90;;;5.00;99.90;;;;;;5016328;28;20479;-83
2021/01/08 13:07:52;;;;;;;5.80;4.03;;;5.00;99.90;;;;;;5017126;28;20531;-88
2021/01/08 13:10:21;;;;;;;8.30;3.90;;;4.90;99.90;;;;;;5013197;28;20500;-84
2021/01/08 13:12:47;;;;;;;5.90;4.30;;;4.80;99.90;;;;;;5029892;28;20524;-84